Aracaju, Brazil

10:52 PM BRT on September 19, 2014 (GMT -0300)
Santa Maria | Change Station
CLOSE
Current Station
Airport
Location: Aracaju Airport,
Elevation: 30 ft
Nearby Weather Stations

Elev 30 ft 10.98 °S, 37.07 °W | Updated 52 minutes ago

Light Rain
Light Rain
73 °F
Feels Like 73 °F
N
14
Wind Variable Wind from ESE

Today
High -- | Low -- °F
--% Chance of Precip.
Yesterday
High -- | Low -- °F
Precip. -- in
5:19 AM 5:24 PM
Waning Crescent, 15% visible
Pressure 30.04 in
Visibility 4.3 miles
Clouds Scattered Clouds 1000 ft
Mostly Cloudy 7000 ft
Dew Point 66 °F
Humidity 78%
Rainfall 0.00 in
Snow Depth Not available.
UV 0 out of 12
Pollen Not available.
Air Quality Not available.
Flu Activity Not available.
METAR SBAR 200100Z 11012KT 7000 -RA SCT010 BKN070 23/19 Q1017

More Conditions Fewer Conditions

Pressure 30.04 in
Visibility 4.3 miles
Clouds Scattered Clouds 1000 ft
Mostly Cloudy 7000 ft
Dew Point 66 °F
Humidity 78%
Rainfall 0.00 in
Snow Depth Not available.
UV 0 out of 12
Pollen Not available.
Air Quality Not available.
Flu Activity Not available.
METAR SBAR 200100Z 11012KT 7000 -RA SCT010 BKN070 23/19 Q1017

More Conditions Fewer Conditions

10-Day Weather Forecast

Almanac

Astronomy

Sep. 19, 2014 Rise Set
Actual Time 5:19 AM BRT 5:24 PM BRT
Civil Twilight 4:58 AM BRT 5:45 PM BRT
Nautical Twilight 4:34 AM BRT 6:09 PM BRT
Astronomical Twilight 4:09 AM BRT 6:34 PM BRT
Moon 1:56 AM BRT (9/19) 1:54 PM BRT (9/19)
Length of Visible Light 12h 46m
Length of Day
12h 04m
Tomorrow will be 0m 36s longer.
Waning Crescent, 15% of the Moon is Illuminated
Today
Waning Crescent
Sep 24
New
Oct 1
First Quarter
Oct 8
Full
Oct 15
Last Quarter

Today's Extremes

Country Highs Country Lows

Community

WunderPhotos

Upload Photos

1,754,760 photos uploaded!

WunderBlogs® & News

Nearby

Snow Depth

Not available.

Earthquake Activity

City Distance Mag. Time & Date
No recent earthquake activity has been reported nearby.
Minimum magnitude displayed is 2.5.

Coastal Water Temperatures

Place Temperature
No Stations Reporting

Nearby Weather Stations